Time;durP1;ratioP1;P1;durP2;ratioP2;P2;SDS_P1;SDS_P2;PMS_P1;PMS_P2;Temp;Humidity;BMP_temperature;BMP_pressure;BME280_temperature;BME280_humidity;BME280_pressure;Samples;Min_cycle;Max_cycle;Signal;HPM_P1;HPM_P2
2021/11/29 00:02:59;;;;;;;6.90;5.83;;;;;;;1.11;78.42;97400.28;4886642;29;20243;-80
2021/11/29 00:05:46;;;;;;;6.00;5.40;;;;;;;1.29;78.01;97410.88;4895764;29;20359;-81
2021/11/29 00:08:35;;;;;;;5.33;4.83;;;;;;;1.33;77.81;97406.78;4891405;23;20259;-81
2021/11/29 00:11:09;;;;;;;6.87;5.57;;;;;;;1.35;78.32;97427.69;4918776;29;20218;-81
2021/11/29 00:13:52;;;;;;;5.20;4.70;;;;;;;1.31;78.00;97422.03;4918918;29;20230;-81
2021/11/29 00:16:48;;;;;;;7.00;5.23;;;;;;;1.24;78.11;97426.53;4924861;23;20243;-81
2021/11/29 00:19:16;;;;;;;5.80;5.13;;;;;;;1.27;77.27;97420.84;4924980;23;20856;-81
2021/11/29 00:22:23;;;;;;;6.00;4.70;;;;;;;1.39;78.12;97434.97;4904413;29;20222;-81
2021/11/29 00:24:54;;;;;;;7.17;5.03;;;;;;;1.42;76.95;97418.69;4919174;29;20202;-81
2021/11/29 00:27:21;;;;;;;5.43;4.73;;;;;;;1.58;76.65;97446.41;4930760;23;20230;-82
2021/11/29 00:29:53;;;;;;;5.73;5.13;;;;;;;1.45;76.88;97434.09;4913217;23;20258;-82
2021/11/29 00:32:21;;;;;;;5.17;4.50;;;;;;;1.57;76.59;97448.22;4877957;29;20264;-81
2021/11/29 00:35:04;;;;;;;5.50;5.00;;;;;;;1.39;77.17;97434.16;4891823;29;20280;-82
2021/11/29 00:37:35;;;;;;;6.77;5.13;;;;;;;1.55;76.87;97444.16;4893568;29;20239;-81
2021/11/29 00:40:12;;;;;;;6.53;5.83;;;;;;;1.55;76.59;97457.38;4885744;23;20231;-81
2021/11/29 00:42:41;;;;;;;5.80;5.20;;;;;;;1.57;76.34;97460.63;4896048;29;20245;-81
2021/11/29 00:45:14;;;;;;;7.43;6.03;;;;;;;1.57;76.38;97458.78;4910398;29;20277;-81
2021/11/29 00:47:45;;;;;;;6.43;5.27;;;;;;;1.55;76.37;97441.53;4910624;29;20271;-81
2021/11/29 00:50:37;;;;;;;6.37;5.07;;;;;;;1.61;76.35;97444.13;4909413;29;20244;-81
2021/11/29 00:53:09;;;;;;;5.80;5.20;;;;;;;1.64;76.03;97448.97;4911330;29;20663;-82
2021/11/29 00:55:38;;;;;;;5.97;5.00;;;;;;;1.56;75.61;97440.50;4922693;23;20270;-82
2021/11/29 00:58:05;;;;;;;7.40;5.40;;;;;;;1.50;76.36;97444.81;4909335;23;20325;-82
2021/11/29 01:00:34;;;;;;;6.13;5.30;;;;;;;1.64;76.34;97454.25;4911669;29;20325;-81
2021/11/29 01:03:16;;;;;;;5.63;5.03;;;;;;;1.70;75.27;97449.94;4912358;29;20290;-82
2021/11/29 01:05:45;;;;;;;5.53;4.90;;;;;;;1.69;75.02;97453.59;4900996;23;20243;-81
2021/11/29 01:08:20;;;;;;;8.30;5.50;;;;;;;1.78;75.38;97462.84;4894315;29;20220;-81
2021/11/29 01:10:47;;;;;;;5.57;4.97;;;;;;;1.78;75.34;97462.84;4907553;23;20254;-82
2021/11/29 01:13:14;;;;;;;6.47;5.23;;;;;;;1.63;75.72;97449.19;4911507;29;20597;-81
2021/11/29 01:15:53;;;;;;;5.67;4.80;;;;;;;1.68;75.63;97457.28;4897841;29;20214;-81
2021/11/29 01:18:22;;;;;;;6.07;5.47;;;;;;;1.58;75.55;97449.84;4912337;29;20187;-82
2021/11/29 01:20:50;;;;;;;5.70;5.03;;;;;;;1.56;75.31;97462.44;4911261;29;20222;-82
2021/11/29 01:23:19;;;;;;;6.43;5.50;;;;;;;1.76;75.20;97486.84;4882032;29;20222;-82
2021/11/29 01:25:46;;;;;;;6.57;5.50;;;;;;;1.68;75.49;97481.03;4895459;29;20247;-83
2021/11/29 01:28:17;;;;;;;6.90;5.43;;;;;;;1.63;76.12;97491.44;4918539;23;20235;-82
2021/11/29 01:30:58;;;;;;;7.93;5.70;;;;;;;1.70;76.10;97497.47;4901328;29;20239;-81
2021/11/29 01:34:03;;;;;;;7.50;5.53;;;;;;;1.73;75.26;97499.66;4940893;23;20239;-82
2021/11/29 01:37:04;;;;;;;6.10;5.47;;;;;;;1.62;76.30;97506.47;4920497;29;20175;-81
2021/11/29 01:39:31;;;;;;;7.10;6.40;;;;;;;1.52;75.67;97490.28;4942566;23;20222;-82
2021/11/29 01:42:27;;;;;;;6.43;5.80;;;;;;;1.65;75.68;97510.50;4923325;23;20314;-82
2021/11/29 01:45:21;;;;;;;8.10;6.03;;;;;;;1.64;75.95;97517.59;4927973;23;20217;-82
2021/11/29 01:48:34;;;;;;;8.17;6.63;;;;;;;1.65;76.36;97497.28;4925325;23;20246;-82
2021/11/29 01:51:34;;;;;;;7.03;5.93;;;;;;;1.67;76.24;97501.34;4933658;23;20227;-84
2021/11/29 01:54:42;;;;;;;7.77;6.17;;;;;;;1.71;75.37;97499.88;4920404;29;20226;-82
2021/11/29 01:57:11;;;;;;;6.77;5.53;;;;;;;1.65;76.08;97494.66;4940010;23;20240;-82
2021/11/29 02:00:04;;;;;;;6.93;6.07;;;;;;;1.67;75.53;97485.50;4935254;23;20250;-83
2021/11/29 02:02:38;;;;;;;7.10;6.10;;;;;;;1.72;75.87;97480.41;4921084;23;20243;-82
2021/11/29 02:09:04;;;;;;;6.53;5.83;;;;;;;1.65;75.27;97468.25;4851721;23;20244;-82
2021/11/29 02:11:53;;;;;;;7.67;6.70;;;;;;;1.72;75.32;97480.41;4936146;23;20248;-81
2021/11/29 02:14:30;;;;;;;8.53;6.43;;;;;;;1.60;75.42;97470.72;4920823;29;20227;-81
2021/11/29 02:16:58;;;;;;;6.90;5.93;;;;;;;1.69;75.12;97472.88;4919974;29;20207;-81
2021/11/29 02:20:05;;;;;;;7.20;6.50;;;;;;;1.71;74.88;97472.69;4931089;23;20254;-81
2021/11/29 02:22:51;;;;;;;7.67;6.77;;;;;;;1.56;75.33;97462.44;4933659;23;20239;-81
2021/11/29 02:25:48;;;;;;;6.80;5.67;;;;;;;1.60;74.76;97476.81;4948165;23;20239;-81
2021/11/29 02:28:22;;;;;;;6.97;6.27;;;;;;;1.74;74.91;97488.06;4927812;23;20298;-82
2021/11/29 02:31:43;;;;;;;7.10;5.90;;;;;;;1.72;74.90;97487.50;4914346;23;20345;-81
2021/11/29 02:34:53;;;;;;;7.03;5.67;;;;;;;1.76;74.07;97484.22;4921199;29;20190;-83
2021/11/29 02:37:37;;;;;;;5.97;5.37;;;;;;;1.71;74.56;97491.97;4944436;23;20239;-81
2021/11/29 02:40:19;;;;;;;7.70;6.37;;;;;;;1.75;74.17;97495.78;4909012;23;20268;-81
2021/11/29 02:43:05;;;;;;;7.03;5.90;;;;;;;1.56;74.69;97478.28;4924800;23;20227;-81
2021/11/29 02:45:41;;;;;;;7.27;5.93;;;;;;;1.63;74.56;97472.97;4927335;23;20277;-81
2021/11/29 02:48:44;;;;;;;6.87;5.63;;;;;;;1.72;73.75;97495.44;4932790;23;20231;-81
2021/11/29 02:52:35;;;;;;;7.13;6.10;;;;;;;1.56;74.27;97488.03;4953461;23;20222;-81
2021/11/29 02:55:48;;;;;;;7.40;6.63;;;;;;;1.53;74.83;97504.28;4926833;23;20239;-82
2021/11/29 02:58:31;;;;;;;6.50;5.83;;;;;;;1.58;73.90;97515.84;4899250;23;20217;-81
2021/11/29 03:01:04;;;;;;;8.00;5.93;;;;;;;1.53;74.53;97499.81;4893904;23;20194;-82
2021/11/29 03:04:05;;;;;;;7.53;6.57;;;;;;;1.62;73.67;97510.94;4925900;23;20219;-82
2021/11/29 03:07:04;;;;;;;7.07;6.30;;;;;;;1.64;73.62;97516.78;4917393;23;20324;-81
2021/11/29 03:09:57;;;;;;;7.13;6.23;;;;;;;1.59;74.16;97512.16;4925460;23;20294;-82
2021/11/29 03:13:09;;;;;;;6.63;5.93;;;;;;;1.72;72.56;97495.44;4920660;29;20175;-83
2021/11/29 03:15:47;;;;;;;7.70;6.13;;;;;;;1.72;73.22;97527.91;4945716;23;20215;-82
2021/11/29 03:19:48;;;;;;;8.53;6.10;;;;;;;1.74;73.86;97536.41;4925918;23;20246;-82
2021/11/29 03:23:15;;;;;;;5.93;5.30;;;;;;;1.76;73.38;97534.38;5020587;23;20261;-81
2021/11/29 03:26:07;;;;;;;6.13;5.30;;;;;;;1.70;73.69;97534.41;4901122;29;20260;-81
2021/11/29 03:29:16;;;;;;;6.47;5.73;;;;;;;1.71;73.13;97531.56;4911522;23;20199;-81
2021/11/29 03:32:12;;;;;;;8.77;6.67;;;;;;;1.54;73.31;97519.09;4913969;23;20238;-82
2021/11/29 03:34:58;;;;;;;7.27;5.57;;;;;;;1.47;74.37;97527.06;4930456;23;20241;-81
2021/11/29 03:37:53;;;;;;;8.70;6.70;;;;;;;1.57;74.48;97543.25;4892877;29;20241;-82
2021/11/29 03:41:15;;;;;;;7.73;6.60;;;;;;;1.57;74.46;97535.31;4923109;29;20195;-81
2021/11/29 03:43:59;;;;;;;7.83;7.00;;;;;;;1.72;73.91;97535.84;4935909;23;20211;-81
2021/11/29 03:47:13;;;;;;;8.10;6.60;;;;;;;1.78;73.84;97534.97;4928160;23;20215;-82
2021/11/29 03:50:04;;;;;;;8.43;6.80;;;;;;;1.54;74.44;97534.94;4940884;23;20230;-81
2021/11/29 03:53:30;;;;;;;7.77;6.97;;;;;;;1.58;74.62;97536.94;4924808;23;20227;-82
2021/11/29 03:56:08;;;;;;;9.07;7.53;;;;;;;1.59;74.73;97543.00;4927674;23;20210;-82
2021/11/29 03:59:08;;;;;;;8.90;7.50;;;;;;;1.39;75.17;97514.13;5010085;23;20245;-82
2021/11/29 04:02:22;;;;;;;8.50;7.53;;;;;;;1.67;74.88;97548.06;4929809;23;20251;-80
2021/11/29 04:04:58;;;;;;;7.93;7.13;;;;;;;1.56;74.85;97552.19;4923268;29;20167;-82
2021/11/29 04:07:39;;;;;;;8.97;7.17;;;;;;;1.42;74.17;97515.53;4933301;23;20344;-81
2021/11/29 04:10:37;;;;;;;8.70;7.03;;;;;;;1.56;74.33;97535.53;4964108;23;20210;-81
2021/11/29 04:13:54;;;;;;;7.50;6.63;;;;;;;1.58;74.68;97549.34;4929450;23;20235;-82
2021/11/29 04:17:28;;;;;;;8.57;7.23;;;;;;;1.58;73.51;97542.22;4908969;23;20231;-82
2021/11/29 04:20:36;;;;;;;8.00;6.60;;;;;;;1.61;73.94;97547.06;5009150;23;20235;-81
2021/11/29 04:23:12;;;;;;;7.80;6.40;;;;;;;1.57;73.95;97547.72;5005135;23;20194;-81
2021/11/29 04:26:16;;;;;;;8.47;7.27;;;;;;;1.59;73.22;97553.56;4933810;23;20246;-81
2021/11/29 04:28:56;;;;;;;8.17;6.30;;;;;;;1.54;73.56;97546.28;4936131;23;20226;-81
2021/11/29 04:31:41;;;;;;;9.10;6.57;;;;;;;1.58;73.53;97568.63;4900154;29;20228;-81
2021/11/29 04:34:16;;;;;;;7.47;6.37;;;;;;;1.46;73.76;97551.00;4924521;23;20238;-82
2021/11/29 04:37:05;;;;;;;7.50;6.50;;;;;;;1.31;73.07;97533.63;4920576;29;20224;-82
2021/11/29 04:39:54;;;;;;;7.83;6.40;;;;;;;1.55;73.09;97566.38;4932510;23;20222;-81
2021/11/29 04:42:32;;;;;;;7.00;6.13;;;;;;;1.64;73.24;97562.47;4908651;23;20290;-81
2021/11/29 04:45:30;;;;;;;7.77;5.90;;;;;;;1.64;72.58;97567.75;4905278;29;20250;-82
2021/11/29 04:48:20;;;;;;;8.03;6.10;;;;;;;1.61;72.46;97565.53;4919321;29;20247;-81
2021/11/29 04:51:14;;;;;;;6.97;5.93;;;;;;;1.66;73.03;97588.66;4910521;23;20230;-81
2021/11/29 04:53:42;;;;;;;7.80;6.70;;;;;;;1.58;73.24;97573.09;4920613;29;20217;-80
2021/11/29 04:56:10;;;;;;;7.53;6.30;;;;;;;1.57;72.95;97585.47;4919279;29;20191;-81
2021/11/29 04:59:15;;;;;;;7.00;6.30;;;;;;;1.59;73.75;97609.81;4933145;23;20234;-81
2021/11/29 05:01:57;;;;;;;7.27;6.20;;;;;;;1.64;73.53;97604.69;4890191;23;20239;-82
2021/11/29 05:04:33;;;;;;;8.10;6.20;;;;;;;1.65;72.49;97600.25;4906080;23;20268;-81
2021/11/29 05:07:14;;;;;;;8.00;6.20;;;;;;;1.61;73.09;97599.84;4885452;29;20231;-80
2021/11/29 05:13:00;;;;;;;8.23;5.97;;;;;;;1.61;72.39;97604.31;4912593;23;20258;-82
2021/11/29 05:15:54;;;;;;;7.17;6.00;;;;;;;1.67;71.96;97627.25;4918733;23;20243;-82
2021/11/29 05:18:41;;;;;;;7.60;6.60;;;;;;;1.65;73.37;97624.00;4994076;23;20240;-81
2021/11/29 05:21:37;;;;;;;7.63;6.00;;;;;;;1.67;72.64;97625.41;4906552;29;20207;-82
2021/11/29 05:24:28;;;;;;;6.27;5.60;;;;;;;1.63;73.09;97618.13;4918546;29;20695;-82
2021/11/29 05:27:05;;;;;;;6.97;5.77;;;;;;;1.64;72.65;97627.66;4931929;23;20226;-82
2021/11/29 05:29:52;;;;;;;7.47;5.60;;;;;;;1.58;73.11;97610.84;4923195;23;20246;-81
2021/11/29 05:33:14;;;;;;;7.43;5.80;;;;;;;1.54;73.17;97628.09;4932977;23;20251;-81
2021/11/29 05:35:50;;;;;;;7.87;5.83;;;;;;;1.56;73.31;97633.19;4917103;23;20237;-81
2021/11/29 05:38:36;;;;;;;7.63;5.50;;;;;;;1.58;72.05;97637.25;4921030;29;20246;-82
2021/11/29 05:41:18;;;;;;;7.63;6.00;;;;;;;1.63;72.35;97640.03;4889072;29;20221;-81
2021/11/29 05:44:22;;;;;;;7.60;5.70;;;;;;;1.68;71.46;97645.50;4920419;29;20255;-81
2021/11/29 05:47:24;;;;;;;6.37;4.90;;;;;;;1.56;71.80;97627.91;4920884;29;20279;-81
2021/11/29 05:50:40;;;;;;;5.80;4.80;;;;;;;1.56;72.01;97636.63;4920138;23;20245;-81
2021/11/29 05:56:41;;;;;;;7.40;5.10;;;;;;;1.61;72.33;97652.66;4862509;29;20220;-81
2021/11/29 05:59:14;;;;;;;5.67;5.03;;;;;;;1.49;72.21;97635.88;4878093;23;20181;-82
2021/11/29 06:02:10;;;;;;;6.10;4.67;;;;;;;1.51;71.48;97638.28;4933067;23;20235;-82
2021/11/29 06:04:38;;;;;;;7.23;5.10;;;;;;;1.55;71.83;97664.03;4936158;23;20647;-81
2021/11/29 06:07:32;;;;;;;7.27;5.30;;;;;;;1.64;71.46;97680.44;4903896;29;20231;-81
2021/11/29 06:10:29;;;;;;;6.50;4.87;;;;;;;1.50;72.28;97678.88;4920394;29;20238;-82
2021/11/29 06:13:04;;;;;;;6.10;5.13;;;;;;;1.62;71.53;97678.03;4937624;23;20235;-81
2021/11/29 06:15:40;;;;;;;6.53;5.30;;;;;;;1.59;72.47;97688.19;4929406;23;20340;-81
2021/11/29 06:18:15;;;;;;;6.67;5.03;;;;;;;1.54;72.06;97680.88;4909367;23;20190;-82
2021/11/29 06:21:14;;;;;;;6.73;4.80;;;;;;;1.56;72.62;97697.34;4912977;23;20264;-81
2021/11/29 06:24:09;;;;;;;5.80;4.63;;;;;;;1.52;71.90;97696.13;4900574;29;20215;-81
2021/11/29 06:26:37;;;;;;;6.10;4.50;;;;;;;1.58;71.23;97697.94;4900686;29;20231;-82
2021/11/29 06:29:09;;;;;;;5.27;4.27;;;;;;;1.63;71.14;97698.09;4912767;29;20254;-82
2021/11/29 06:31:42;;;;;;;5.47;4.20;;;;;;;1.64;71.11;97704.19;4890384;29;20247;-82
2021/11/29 06:34:09;;;;;;;6.73;4.90;;;;;;;1.53;71.15;97708.31;4887659;29;20243;-82
2021/11/29 06:36:39;;;;;;;5.20;4.57;;;;;;;1.68;71.04;97716.78;4888907;29;20254;-82
2021/11/29 06:39:06;;;;;;;5.43;4.40;;;;;;;1.62;71.03;97720.28;4908434;29;20212;-82
2021/11/29 06:41:36;;;;;;;6.70;4.37;;;;;;;1.67;71.88;97725.72;4906788;29;20223;-82
2021/11/29 06:44:10;;;;;;;4.97;4.40;;;;;;;1.63;71.58;97721.88;4892197;29;20231;-82
2021/11/29 06:46:38;;;;;;;6.57;4.40;;;;;;;1.57;71.32;97712.16;4890587;29;20239;-82
2021/11/29 06:49:06;;;;;;;5.37;4.20;;;;;;;1.74;71.21;97731.78;4891004;29;20211;-82
2021/11/29 06:51:39;;;;;;;4.20;3.80;;;;;;;1.73;70.48;97732.78;4903477;23;20235;-81
2021/11/29 06:54:09;;;;;;;5.27;3.90;;;;;;;1.74;70.88;97738.88;4907118;29;20230;-82
2021/11/29 06:56:46;;;;;;;5.40;4.27;;;;;;;1.75;71.66;97737.88;4893792;29;20258;-82
2021/11/29 06:59:21;;;;;;;5.13;4.10;;;;;;;1.80;71.11;97737.25;4908515;29;20335;-81
2021/11/29 07:02:05;;;;;;;5.23;4.23;;;;;;;1.77;71.99;97741.13;4909252;29;20242;-81
2021/11/29 07:04:41;;;;;;;5.20;4.30;;;;;;;1.81;71.37;97737.03;4909915;29;20245;-81
2021/11/29 07:07:16;;;;;;;5.77;4.30;;;;;;;1.87;71.16;97753.88;4908281;29;20714;-81
2021/11/29 07:09:52;;;;;;;6.53;4.20;;;;;;;1.83;71.28;97747.38;4908334;29;20226;-81
2021/11/29 07:12:28;;;;;;;5.13;4.13;;;;;;;1.85;71.23;97755.91;4908292;29;20556;-80
2021/11/29 07:15:16;;;;;;;5.50;4.40;;;;;;;2.00;70.49;97765.22;4907448;29;20238;-80
2021/11/29 07:17:47;;;;;;;4.20;3.67;;;;;;;2.04;70.53;97753.19;4907229;29;20222;-81
2021/11/29 07:20:14;;;;;;;6.20;3.67;;;;;;;2.15;70.21;97762.25;4890126;29;20231;-81
2021/11/29 07:22:44;;;;;;;5.30;4.10;;;;;;;2.18;69.51;97765.31;4909966;29;20246;-81
2021/11/29 07:25:13;;;;;;;5.00;4.20;;;;;;;2.14;70.25;97769.41;4906924;29;20227;-81
2021/11/29 07:27:50;;;;;;;5.10;3.97;;;;;;;2.17;69.79;97752.31;4906647;29;20238;-82
2021/11/29 07:30:21;;;;;;;4.80;4.30;;;;;;;2.27;69.84;97762.41;4886896;29;20262;-82
2021/11/29 07:32:53;;;;;;;4.63;4.13;;;;;;;2.33;69.29;97764.22;4910226;29;20321;-81
2021/11/29 07:35:27;;;;;;;4.90;4.00;;;;;;;2.22;69.37;97761.22;4923314;23;20234;-81
2021/11/29 07:37:59;;;;;;;5.10;3.77;;;;;;;2.35;69.63;97770.09;4886318;23;20227;-80
2021/11/29 07:40:28;;;;;;;4.37;3.80;;;;;;;2.34;69.25;97763.19;4893747;29;20306;-81
2021/11/29 07:43:18;;;;;;;5.33;4.03;;;;;;;2.39;69.88;97773.94;4919082;23;20286;-81
2021/11/29 07:45:45;;;;;;;5.07;4.37;;;;;;;2.45;69.11;97773.09;4896876;29;20830;-82
2021/11/29 07:48:15;;;;;;;5.77;5.07;;;;;;;2.59;69.19;97780.72;4919914;23;20287;-81
2021/11/29 07:50:45;;;;;;;7.23;4.33;;;;;;;2.53;68.85;97780.75;4897902;29;20289;-79
2021/11/29 07:53:15;;;;;;;5.93;4.37;;;;;;;2.62;69.16;97784.75;4913376;29;20215;-82
2021/11/29 07:55:44;;;;;;;5.10;4.10;;;;;;;2.62;68.58;97793.50;4914770;29;20179;-81
2021/11/29 07:58:12;;;;;;;5.53;4.50;;;;;;;2.60;68.96;97789.47;4916952;23;20231;-81
2021/11/29 08:00:39;;;;;;;5.47;4.60;;;;;;;2.62;69.32;97790.88;4895383;29;20247;-81
2021/11/29 08:03:09;;;;;;;5.17;4.50;;;;;;;2.64;69.24;97812.63;4878145;29;20234;-82
2021/11/29 08:05:55;;;;;;;5.67;4.60;;;;;;;2.66;69.08;97796.53;4893881;29;20247;-81
2021/11/29 08:08:31;;;;;;;6.87;4.50;;;;;;;2.90;68.42;97810.81;4909576;23;20245;-82
2021/11/29 08:11:15;;;;;;;6.07;4.47;;;;;;;2.93;68.08;97808.56;4909269;23;20298;-81
2021/11/29 08:13:47;;;;;;;6.33;4.70;;;;;;;2.87;68.25;97813.88;4901541;29;20306;-81
2021/11/29 08:16:19;;;;;;;5.00;4.43;;;;;;;2.89;68.93;97807.34;4923837;23;20239;-80
2021/11/29 08:18:45;;;;;;;5.93;5.23;;;;;;;2.92;68.52;97803.47;4921913;23;20276;-81
2021/11/29 08:21:32;;;;;;;4.70;4.30;;;;;;;2.86;68.56;97813.06;4910352;23;20227;-80
2021/11/29 08:24:02;;;;;;;5.73;4.87;;;;;;;2.98;68.17;97821.16;4913394;23;20215;-81
2021/11/29 08:26:41;;;;;;;4.67;4.17;;;;;;;3.05;66.84;97837.75;4901336;29;20241;-82
2021/11/29 08:29:15;;;;;;;8.03;4.60;;;;;;;3.08;66.93;97826.75;4923789;23;20263;-81
2021/11/29 08:31:47;;;;;;;6.43;4.73;;;;;;;2.96;67.33;97817.91;4901194;29;20615;-81
2021/11/29 08:34:17;;;;;;;7.63;4.37;;;;;;;2.97;67.75;97841.50;4915815;29;20237;-82
2021/11/29 08:36:45;;;;;;;6.07;4.10;;;;;;;3.04;67.01;97844.06;4942931;23;20588;-81
2021/11/29 08:39:12;;;;;;;4.97;3.93;;;;;;;3.00;67.02;97841.06;4894842;23;20243;-81
2021/11/29 08:41:41;;;;;;;7.03;4.73;;;;;;;3.03;66.97;97830.03;4882120;29;20234;-81
2021/11/29 08:44:11;;;;;;;5.53;4.70;;;;;;;3.09;66.74;97845.06;4897167;29;20296;-81
2021/11/29 08:46:48;;;;;;;5.43;4.30;;;;;;;2.98;66.59;97851.06;4924236;23;20250;-81
2021/11/29 08:49:28;;;;;;;6.17;4.57;;;;;;;2.97;67.33;97869.78;4917346;29;20238;-80
2021/11/29 08:51:56;;;;;;;5.33;4.43;;;;;;;3.18;66.64;97871.25;4930022;23;20245;-81
2021/11/29 08:54:28;;;;;;;5.57;4.77;;;;;;;3.13;66.67;97847.28;4880355;29;20231;-81
2021/11/29 08:56:55;;;;;;;5.33;4.50;;;;;;;3.16;66.35;97850.31;4919448;23;20238;-81
2021/11/29 08:59:27;;;;;;;6.33;4.30;;;;;;;3.23;65.87;97863.47;4926496;23;20207;-82
2021/11/29 09:02:00;;;;;;;5.07;4.57;;;;;;;3.20;65.67;97864.72;4921044;23;20235;-81
2021/11/29 09:04:27;;;;;;;8.50;4.27;;;;;;;3.26;65.53;97873.66;4923989;23;20266;-81
2021/11/29 09:06:56;;;;;;;5.63;4.07;;;;;;;3.28;65.52;97883.00;4887327;29;20231;-82
2021/11/29 09:09:49;;;;;;;6.10;4.60;;;;;;;3.17;65.67;97861.72;4903162;29;20234;-82
2021/11/29 09:12:39;;;;;;;7.13;5.37;;;;;;;3.34;65.61;97879.50;4901516;23;20232;-81
2021/11/29 09:15:13;;;;;;;7.70;5.87;;;;;;;3.38;64.77;97867.44;4864111;29;20224;-82
2021/11/29 09:17:49;;;;;;;7.57;5.90;;;;;;;3.57;65.37;97892.13;4901070;23;20230;-82
2021/11/29 09:20:41;;;;;;;7.40;6.03;;;;;;;3.58;64.67;97874.41;4928029;23;20325;-81
2021/11/29 09:23:22;;;;;;;7.10;5.73;;;;;;;3.77;64.56;97881.34;4937986;23;20540;-82
2021/11/29 09:25:55;;;;;;;7.20;6.40;;;;;;;3.63;65.11;97856.03;4900191;23;20255;-81
2021/11/29 09:28:41;;;;;;;8.27;6.70;;;;;;;4.05;64.47;97876.38;4907765;23;20231;-82
2021/11/29 09:31:31;;;;;;;8.37;6.10;;;;;;;4.08;64.11;97885.72;4943696;23;20217;-81
2021/11/29 09:34:01;;;;;;;9.20;6.70;;;;;;;4.31;63.61;97891.16;4891103;23;20331;-81
2021/11/29 09:36:37;;;;;;;9.17;6.43;;;;;;;4.45;62.46;97882.03;4883043;29;20296;-82
2021/11/29 09:39:06;;;;;;;7.47;5.47;;;;;;;4.37;62.23;97875.19;4914735;23;20597;-81
2021/11/29 09:41:38;;;;;;;7.60;6.80;;;;;;;4.63;61.72;97891.81;4917375;23;20235;-81
2021/11/29 09:44:07;;;;;;;8.50;6.70;;;;;;;4.68;62.13;97900.72;4896782;29;20192;-81
2021/11/29 09:46:35;;;;;;;7.73;6.37;;;;;;;4.72;62.53;97899.22;4896930;29;20561;-81
2021/11/29 09:49:07;;;;;;;8.50;6.40;;;;;;;4.71;61.21;97894.16;4898255;29;20204;-81
2021/11/29 09:51:36;;;;;;;7.40;6.40;;;;;;;4.77;61.46;97899.38;4902474;23;20282;-82
2021/11/29 09:54:09;;;;;;;9.13;6.03;;;;;;;4.90;61.73;97892.28;4866911;29;20196;-82
2021/11/29 09:56:37;;;;;;;7.30;5.80;;;;;;;4.74;60.93;97901.66;4890279;29;20266;-82
2021/11/29 09:59:05;;;;;;;8.10;6.00;;;;;;;4.67;61.46;97891.13;4993856;23;20192;-81
2021/11/29 10:01:46;;;;;;;6.30;5.50;;;;;;;4.57;61.38;97890.06;4894142;29;20583;-82
2021/11/29 10:04:40;;;;;;;7.57;6.20;;;;;;;4.74;61.52;97907.78;4895545;23;20298;-81
2021/11/29 10:07:08;;;;;;;7.60;5.53;;;;;;;4.78;61.15;97902.84;4913959;23;20215;-81
2021/11/29 10:09:42;;;;;;;6.20;5.47;;;;;;;4.63;60.84;97897.91;4885294;23;20675;-81
2021/11/29 10:12:21;;;;;;;8.60;5.60;;;;;;;4.60;61.34;97898.38;4903134;29;20674;-82
2021/11/29 10:15:34;;;;;;;6.17;5.20;;;;;;;4.59;61.27;97886.13;4893449;29;21239;-82
2021/11/29 10:18:19;;;;;;;8.67;5.60;;;;;;;4.68;61.25;97890.09;4893843;29;20227;-81
2021/11/29 10:21:07;;;;;;;7.03;5.37;;;;;;;4.52;60.32;97885.44;4894493;29;20278;-82
2021/11/29 10:24:00;;;;;;;9.50;5.63;;;;;;;4.55;61.14;97874.38;4873733;29;20247;-82
2021/11/29 10:26:33;;;;;;;5.83;5.17;;;;;;;4.62;61.01;97885.69;4874422;29;20675;-82
2021/11/29 10:29:12;;;;;;;6.53;5.60;;;;;;;4.57;60.96;97892.72;4874028;29;20227;-82
2021/11/29 10:32:01;;;;;;;6.83;5.83;;;;;;;4.59;60.38;97906.53;4879972;29;20238;-82
2021/11/29 10:34:43;;;;;;;6.27;5.50;;;;;;;4.34;61.36;97899.50;4903515;23;20261;-82
2021/11/29 10:37:37;;;;;;;9.37;7.10;;;;;;;4.47;61.90;97900.38;4926635;23;20277;-82
2021/11/29 10:40:21;;;;;;;7.37;6.27;;;;;;;4.49;61.55;97891.16;4927290;23;20246;-82
2021/11/29 10:42:49;;;;;;;7.77;5.90;;;;;;;4.35;61.38;97876.44;4926288;23;20245;-82
2021/11/29 10:46:37;;;;;;;7.20;5.97;;;;;;;4.62;61.31;97903.47;4939828;23;20231;-82
2021/11/29 10:49:42;;;;;;;6.00;5.40;;;;;;;4.78;59.32;97908.13;4926343;23;20235;-82
2021/11/29 10:56:30;;;;;;;7.87;6.63;;;;;;;5.08;60.11;97924.91;4928166;23;20222;-82
2021/11/29 10:59:43;;;;;;;6.33;5.67;;;;;;;4.87;58.79;97902.31;4922411;29;20190;-83
2021/11/29 11:02:44;;;;;;;7.23;5.73;;;;;;;4.87;58.19;97894.34;4925938;23;20218;-83
2021/11/29 11:05:58;;;;;;;7.07;6.13;;;;;;;5.13;59.38;97911.72;4948481;23;20247;-81
2021/11/29 11:08:53;;;;;;;6.20;5.20;;;;;;;5.02;56.90;97911.69;4923055;23;20242;-81
2021/11/29 11:11:56;;;;;;;7.03;5.67;;;;;;;5.03;58.56;97910.69;4925511;23;20230;-82
2021/11/29 11:14:47;;;;;;;6.17;5.57;;;;;;;5.06;58.19;97902.25;4925559;23;20222;-82
2021/11/29 11:18:14;;;;;;;8.13;6.30;;;;;;;5.05;58.54;97919.19;4934243;23;20234;-81
2021/11/29 11:21:27;;;;;;;6.30;5.70;;;;;;;5.11;58.45;97913.00;4946380;23;20227;-81
2021/11/29 11:24:20;;;;;;;7.90;7.10;;;;;;;5.32;59.04;97920.44;4924559;23;20234;-81
2021/11/29 11:27:12;;;;;;;7.20;6.00;;;;;;;5.28;58.62;97921.94;4927730;23;20227;-82
2021/11/29 11:29:57;;;;;;;8.30;7.10;;;;;;;5.45;59.00;97938.84;5012021;23;20223;-81
2021/11/29 11:32:32;;;;;;;7.93;7.13;;;;;;;5.25;58.58;97923.22;4898446;29;20691;-82
2021/11/29 11:35:10;;;;;;;7.20;6.50;;;;;;;5.19;59.20;97940.03;4907226;23;20256;-82
2021/11/29 11:37:57;;;;;;;7.67;6.40;;;;;;;5.11;58.90;97935.06;4903821;29;20251;-82
2021/11/29 11:40:30;;;;;;;7.63;6.40;;;;;;;5.15;58.81;97944.19;4891590;29;20200;-81
2021/11/29 11:43:01;;;;;;;7.50;6.37;;;;;;;5.15;57.32;97944.19;4878871;29;20226;-81
2021/11/29 11:45:31;;;;;;;7.47;5.70;;;;;;;5.05;57.82;97943.09;4895507;29;20216;-82
2021/11/29 11:48:02;;;;;;;7.77;6.40;;;;;;;5.07;57.62;97959.63;4894289;29;20235;-82
2021/11/29 11:50:34;;;;;;;7.40;6.53;;;;;;;5.15;58.04;97953.97;4894782;29;20251;-82
2021/11/29 11:53:07;;;;;;;6.47;5.77;;;;;;;5.30;57.86;97947.25;4895494;29;20591;-82
2021/11/29 11:55:54;;;;;;;7.70;5.70;;;;;;;5.29;56.91;97963.38;4902166;23;20648;-83
2021/11/29 11:58:33;;;;;;;6.40;5.47;;;;;;;5.36;56.72;97956.16;4895445;29;20294;-82
2021/11/29 12:01:04;;;;;;;8.03;5.80;;;;;;;5.40;56.48;97964.47;4913775;23;20234;-82
2021/11/29 12:03:38;;;;;;;7.07;5.43;;;;;;;5.37;55.44;97963.06;4913194;29;20202;-82
2021/11/29 12:06:08;;;;;;;6.30;5.67;;;;;;;5.36;56.07;97953.50;4912984;29;20259;-82
2021/11/29 12:08:51;;;;;;;6.47;5.20;;;;;;;5.30;55.79;97951.72;4919803;23;20242;-82
2021/11/29 12:11:26;;;;;;;6.10;5.30;;;;;;;5.48;56.34;97962.28;4897855;29;20210;-82
2021/11/29 12:14:11;;;;;;;6.30;4.83;;;;;;;5.52;55.14;97963.44;4896955;29;20294;-82
2021/11/29 12:16:58;;;;;;;5.53;5.03;;;;;;;5.58;55.55;97965.22;4879925;29;20235;-82
2021/11/29 12:20:03;;;;;;;5.87;5.07;;;;;;;5.88;55.35;97964.38;4876151;29;20236;-82
2021/11/29 12:22:43;;;;;;;5.80;4.87;;;;;;;5.53;54.60;97958.94;4891910;29;20231;-82
2021/11/29 12:25:22;;;;;;;5.53;4.30;;;;;;;5.55;53.59;97954.22;4905099;23;20235;-82
2021/11/29 12:28:35;;;;;;;5.17;4.63;;;;;;;5.71;54.30;97965.00;4919573;23;20294;-82
2021/11/29 12:31:06;;;;;;;4.83;4.37;;;;;;;5.61;54.38;97959.44;4895489;29;20214;-82
2021/11/29 12:33:46;;;;;;;7.37;4.70;;;;;;;5.66;55.55;97980.81;4889570;29;20224;-82
2021/11/29 12:36:53;;;;;;;5.60;4.73;;;;;;;5.70;54.38;97967.88;4927119;23;20234;-82
2021/11/29 12:40:23;;;;;;;4.90;4.40;;;;;;;5.71;54.91;97969.50;4902994;29;20210;-82
2021/11/29 12:43:09;;;;;;;5.07;4.40;;;;;;;5.82;55.85;97976.69;4934541;23;20238;-81
2021/11/29 12:46:16;;;;;;;4.60;4.20;;;;;;;5.81;54.89;97960.97;4909282;23;20226;31
2021/11/29 12:49:33;;;;;;;5.37;4.57;;;;;;;5.76;55.10;97970.44;4899416;23;20224;-82
2021/11/29 12:52:06;;;;;;;5.13;4.60;;;;;;;5.70;54.64;97981.97;4934396;23;20365;-81
2021/11/29 12:54:58;;;;;;;5.23;4.73;;;;;;;5.53;54.80;97981.03;4915556;23;20226;-82
2021/11/29 12:57:42;;;;;;;5.33;4.83;;;;;;;5.41;55.47;98001.44;4922997;23;20234;-82
2021/11/29 13:00:52;;;;;;;5.00;4.50;;;;;;;5.38;56.17;97996.56;4922611;29;20206;-83
2021/11/29 13:03:41;;;;;;;5.83;4.97;;;;;;;5.30;56.12;98005.66;4927689;23;20247;-82
2021/11/29 13:07:14;;;;;;;5.00;4.50;;;;;;;5.21;56.70;98019.47;4928825;23;20254;-81
2021/11/29 13:10:07;;;;;;;5.37;4.87;;;;;;;4.92;56.69;98022.88;4904941;23;20250;-82
2021/11/29 13:12:38;;;;;;;5.83;5.23;;;;;;;4.89;57.10;98013.53;4945491;23;20271;-83
2021/11/29 13:15:55;;;;;;;5.60;5.00;;;;;;;4.91;58.66;98022.06;4928272;23;20237;-83
2021/11/29 13:19:22;;;;;;;5.63;5.00;;;;;;;4.88;59.32;98025.19;4927440;23;20238;31